Latest Weather Forecast - Thursday, 8th November 2018 (12pm)

Date: Thursday 8th November, 2018
Valid from: 12:00 pm to 6:00 pm
Synopsis: Weak unstable conditions will be affecting the island ..
Forecast: Partly cloudy to occasionally cloudy with a few scattered showers
Weather Advisory: Exercise caution near rivers, streams and low-lying areas
Winds: E to ESE at 20 - 30 km/h (13 to 19 mph)
Sea Conditions: Slight to moderate in open water; swells 1.0m – 2.0m
Marine 
Advisory/Warning:
None
Tides:
High: 8:57 pm    
Low: 2:35 pm and 11:22 pm

Aviation WX

[Source: ADDS]
METAR
TVSA 130500Z 1306/1406 07006KT 9999 SCT018 TEMPO 1306/1312 BKN015 TAF
TVSA 130500Z 1306/1406 07006KT 9999 SCT018 TEMPO 1306/1312 BKN015 =
SR / SS: 09:45 / 22:35 UTC (Sunrise Sunset 2020-07-13)